createdAt,value
2017-08-30T00:00:30.646Z,30.35
2017-08-30T00:02:58.367Z,22.40
2017-08-30T00:05:26.015Z,16.45
2017-08-30T00:07:53.667Z,29.10
2017-08-30T00:10:22.579Z,20.60
2017-08-30T00:12:50.256Z,21.12
2017-08-30T00:15:18.126Z,34.15
2017-08-30T00:17:45.790Z,18.05
2017-08-30T00:20:13.437Z,16.30
2017-08-30T00:22:41.180Z,14.00
2017-08-30T00:25:20.897Z,18.55
2017-08-30T00:27:48.581Z,18.77
2017-08-30T00:30:17.677Z,15.52
2017-08-30T00:33:03.000Z,16.75
2017-08-30T00:35:37.272Z,17.02
2017-08-30T00:38:11.837Z,15.50
2017-08-30T00:40:46.126Z,16.50
2017-08-30T00:43:16.170Z,26.20
2017-08-30T00:45:44.517Z,22.27
2017-08-30T00:48:12.990Z,17.17
2017-08-30T00:50:41.961Z,17.08
2017-08-30T00:53:10.240Z,14.15
2017-08-30T00:55:38.533Z,16.50
2017-08-30T00:58:06.262Z,13.70
2017-08-30T01:00:34.918Z,14.68
2017-08-30T01:03:03.155Z,16.33
2017-08-30T01:05:31.330Z,63.17
2017-08-30T01:07:59.604Z,31.23
2017-08-30T01:10:27.368Z,15.73
2017-08-30T01:12:55.110Z,15.75
2017-08-30T01:15:23.249Z,15.82
2017-08-30T01:17:51.377Z,18.02
2017-08-30T01:20:20.064Z,27.70
2017-08-30T01:22:48.030Z,16.73
2017-08-30T01:25:15.742Z,18.17
2017-08-30T01:27:43.409Z,17.55
2017-08-30T01:30:11.076Z,23.20
2017-08-30T01:32:38.778Z,22.00
2017-08-30T01:35:06.779Z,18.73
2017-08-30T01:37:37.569Z,17.83
2017-08-30T01:40:05.423Z,18.83
2017-08-30T01:42:33.088Z,18.08
2017-08-30T01:45:01.204Z,16.90
2017-08-30T01:47:29.046Z,16.23
2017-08-30T01:49:56.923Z,15.70
2017-08-30T01:52:24.977Z,18.12
2017-08-30T01:54:52.862Z,18.60
2017-08-30T01:57:20.894Z,17.10
2017-08-30T01:59:49.734Z,18.80
2017-08-30T02:02:17.785Z,18.05
2017-08-30T02:04:49.428Z,18.62
2017-08-30T02:07:17.568Z,17.25
2017-08-30T02:09:45.451Z,18.40
2017-08-30T02:12:13.753Z,18.10
2017-08-30T02:14:41.412Z,17.98
2017-08-30T02:17:09.267Z,33.70
2017-08-30T02:19:36.973Z,20.12
2017-08-30T02:22:04.634Z,42.47
2017-08-30T02:24:32.399Z,22.80
2017-08-30T02:27:00.440Z,17.27
2017-08-30T02:29:28.347Z,21.08
2017-08-30T02:31:56.076Z,26.30
2017-08-30T02:34:23.725Z,20.52
2017-08-30T02:36:51.398Z,18.65
2017-08-30T02:39:19.050Z,18.10
2017-08-30T02:41:46.766Z,19.83
2017-08-30T02:44:14.415Z,18.12
2017-08-30T02:46:42.070Z,18.10
2017-08-30T02:49:09.742Z,18.12
2017-08-30T02:51:37.393Z,16.10
2017-08-30T02:54:05.089Z,17.10
2017-08-30T02:56:32.749Z,16.87
2017-08-30T02:59:00.409Z,15.43
2017-08-30T03:01:28.106Z,18.12
2017-08-30T03:03:55.870Z,16.17
2017-08-30T03:06:23.579Z,16.70
2017-08-30T03:08:51.401Z,15.95
2017-08-30T03:11:19.056Z,13.93
2017-08-30T03:13:46.742Z,13.18
2017-08-30T03:16:14.413Z,15.13
2017-08-30T03:18:42.200Z,15.75
2017-08-30T03:21:09.878Z,14.50
2017-08-30T03:23:37.524Z,15.75
2017-08-30T03:26:05.204Z,20.52
2017-08-30T03:28:32.886Z,22.05
2017-08-30T03:31:00.591Z,21.67
2017-08-30T03:33:28.294Z,21.27
2017-08-30T03:35:55.953Z,21.15
2017-08-30T03:38:23.629Z,25.02
2017-08-30T03:40:51.311Z,23.70
2017-08-30T03:43:19.330Z,21.35
2017-08-30T03:45:47.010Z,22.00
2017-08-30T03:48:14.674Z,21.33
2017-08-30T03:50:43.242Z,24.30
2017-08-30T03:53:10.890Z,21.70
2017-08-30T03:55:38.726Z,19.58
2017-08-30T03:58:06.411Z,19.35
2017-08-30T04:00:34.064Z,21.92
2017-08-30T04:03:01.741Z,21.30
2017-08-30T04:05:29.406Z,21.25
2017-08-30T04:07:57.098Z,19.20
2017-08-30T04:10:24.758Z,17.67
2017-08-30T04:12:52.461Z,19.50
2017-08-30T04:15:20.150Z,18.95
2017-08-30T04:17:47.799Z,19.95
2017-08-30T04:20:15.667Z,20.42
2017-08-30T04:22:43.319Z,20.92
2017-08-30T04:25:10.970Z,22.25
2017-08-30T04:27:38.636Z,23.12
2017-08-30T04:30:06.294Z,23.65
2017-08-30T04:32:34.172Z,20.08
2017-08-30T04:35:01.852Z,22.15
2017-08-30T04:37:29.506Z,21.52
2017-08-30T04:39:57.195Z,24.30
2017-08-30T04:42:24.847Z,25.60
2017-08-30T04:44:52.959Z,23.55
2017-08-30T04:47:20.606Z,24.63
2017-08-30T04:49:48.269Z,24.42
2017-08-30T04:52:15.945Z,24.48
2017-08-30T04:54:43.603Z,23.38
2017-08-30T04:57:11.603Z,25.60
2017-08-30T04:59:39.249Z,22.70
2017-08-30T05:02:06.890Z,23.58
2017-08-30T05:04:34.564Z,23.60
2017-08-30T05:07:03.181Z,24.12
2017-08-30T05:09:31.620Z,22.35
2017-08-30T05:11:59.314Z,22.87
2017-08-30T05:14:26.962Z,24.33
2017-08-30T05:16:54.638Z,23.77
2017-08-30T05:19:22.288Z,22.90
2017-08-30T05:21:50.171Z,22.55
2017-08-30T05:24:17.830Z,24.15
2017-08-30T05:26:45.502Z,22.55
2017-08-30T05:29:13.325Z,20.40
2017-08-30T05:31:40.983Z,21.50
2017-08-30T05:34:08.887Z,22.60
2017-08-30T05:36:36.551Z,18.33
2017-08-30T05:39:04.358Z,19.62
2017-08-30T05:41:32.111Z,16.73
2017-08-30T05:43:59.811Z,17.87
2017-08-30T05:46:27.550Z,18.90
2017-08-30T05:48:55.254Z,18.77
2017-08-30T05:51:22.934Z,17.52
2017-08-30T05:53:50.600Z,17.85
2017-08-30T05:56:18.249Z,18.52
2017-08-30T05:58:45.959Z,17.30
2017-08-30T06:01:13.620Z,18.08
2017-08-30T06:03:41.292Z,18.20
2017-08-30T06:06:08.998Z,16.65
2017-08-30T06:08:37.346Z,17.87
2017-08-30T06:11:05.377Z,17.58
2017-08-30T06:13:33.054Z,17.00
2017-08-30T06:16:00.717Z,17.35
2017-08-30T06:18:28.405Z,14.80
2017-08-30T06:20:56.075Z,17.15
2017-08-30T06:23:23.841Z,16.42
2017-08-30T06:25:51.498Z,14.93
2017-08-30T06:28:19.302Z,14.73
2017-08-30T06:30:47.010Z,14.77
2017-08-30T06:33:14.669Z,13.80
2017-08-30T06:38:17.247Z,13.93
2017-08-30T06:40:45.370Z,12.33
2017-08-30T06:43:13.021Z,11.80
2017-08-30T06:45:40.675Z,11.07
2017-08-30T06:48:08.342Z,9.87
2017-08-30T06:50:35.986Z,11.00
2017-08-30T06:53:03.675Z,10.30
2017-08-30T06:55:31.322Z,8.83
2017-08-30T06:57:58.977Z,10.53
2017-08-30T07:00:26.651Z,9.10
2017-08-30T07:02:54.294Z,9.37
2017-08-30T07:05:22.096Z,9.70
2017-08-30T07:07:49.759Z,10.20
2017-08-30T07:10:17.398Z,8.40
2017-08-30T07:12:45.066Z,9.57
2017-08-30T07:15:12.794Z,8.53
2017-08-30T07:17:40.587Z,9.60
2017-08-30T07:20:08.260Z,7.90
2017-08-30T07:22:35.922Z,8.93
2017-08-30T07:25:03.750Z,8.63
2017-08-30T07:27:31.396Z,8.03
2017-08-30T07:29:59.204Z,8.30
2017-08-30T07:32:26.863Z,8.47
2017-08-30T07:34:54.561Z,8.27
2017-08-30T07:37:22.230Z,9.37
2017-08-30T07:39:49.922Z,7.70
2017-08-30T07:42:17.682Z,7.30
2017-08-30T07:44:45.418Z,9.10
2017-08-30T07:47:13.050Z,8.80
2017-08-30T07:49:40.715Z,8.67
2017-08-30T07:52:08.353Z,7.53
2017-08-30T07:54:36.110Z,8.10
2017-08-30T07:57:03.797Z,8.17
2017-08-30T07:59:31.455Z,6.73
2017-08-30T08:01:59.424Z,7.00
2017-08-30T08:04:27.140Z,7.23
2017-08-30T08:06:54.831Z,10.00
2017-08-30T08:09:22.714Z,7.60
2017-08-30T08:11:50.366Z,7.30
2017-08-30T08:14:18.809Z,7.37
2017-08-30T08:16:46.538Z,6.60
2017-08-30T08:19:14.185Z,7.03
2017-08-30T08:21:41.844Z,6.50
2017-08-30T08:24:09.875Z,7.43
2017-08-30T08:26:37.518Z,7.00
2017-08-30T08:29:05.174Z,7.33
2017-08-30T08:31:32.862Z,7.50
2017-08-30T08:34:00.498Z,7.87
2017-08-30T08:36:28.151Z,6.80
2017-08-30T08:38:56.082Z,6.87
2017-08-30T08:41:23.726Z,7.07
2017-08-30T08:43:51.378Z,6.70
2017-08-30T08:46:19.449Z,7.97
2017-08-30T08:48:47.094Z,6.70
2017-08-30T08:51:14.748Z,7.53
2017-08-30T08:53:42.681Z,7.53
2017-08-30T08:56:10.375Z,6.63
2017-08-30T08:58:38.029Z,6.83
2017-08-30T09:01:05.975Z,6.40
2017-08-30T09:03:33.661Z,7.50
2017-08-30T09:06:01.359Z,6.10
2017-08-30T09:08:31.535Z,6.70
2017-08-30T09:10:59.318Z,7.50
2017-08-30T09:13:26.995Z,7.87
2017-08-30T09:15:54.891Z,7.30
2017-08-30T09:18:22.537Z,8.00
2017-08-30T09:20:50.176Z,7.03
2017-08-30T09:23:18.051Z,7.20
2017-08-30T09:25:45.704Z,6.60
2017-08-30T09:28:13.358Z,6.93
2017-08-30T09:30:41.275Z,7.00
2017-08-30T09:33:08.931Z,7.80
2017-08-30T09:35:37.237Z,7.60
2017-08-30T09:38:05.179Z,6.83
2017-08-30T09:40:32.834Z,7.20
2017-08-30T09:43:00.473Z,7.57
2017-08-30T09:45:28.293Z,7.30
2017-08-30T09:47:55.937Z,6.63
2017-08-30T09:50:24.038Z,7.10
2017-08-30T09:52:51.852Z,6.47
2017-08-30T09:55:19.497Z,6.00
2017-08-30T09:57:47.146Z,6.77
2017-08-30T10:00:14.855Z,6.57
2017-08-30T10:02:42.886Z,5.57
2017-08-30T10:05:10.976Z,6.00
2017-08-30T10:07:46.295Z,5.87
2017-08-30T10:10:14.232Z,6.70
2017-08-30T10:12:42.140Z,6.37
2017-08-30T10:15:10.232Z,6.40
2017-08-30T10:17:39.047Z,6.37
2017-08-30T10:20:09.109Z,6.30
2017-08-30T10:22:37.679Z,5.97
2017-08-30T10:25:05.658Z,6.37
2017-08-30T10:27:33.698Z,5.67
2017-08-30T10:30:01.980Z,6.03
2017-08-30T10:32:30.117Z,6.00
2017-08-30T10:34:58.160Z,6.73
2017-08-30T10:37:26.766Z,6.13
2017-08-30T10:39:54.437Z,7.37
2017-08-30T10:42:22.102Z,5.70
2017-08-30T10:44:55.143Z,5.70
2017-08-30T10:47:40.666Z,6.33
2017-08-30T10:50:09.034Z,5.13
2017-08-30T10:52:36.682Z,6.20
2017-08-30T10:55:04.330Z,6.40
2017-08-30T10:57:32.227Z,6.70
2017-08-30T10:59:59.863Z,7.00
2017-08-30T11:02:27.513Z,7.07
2017-08-30T11:04:55.356Z,7.40
2017-08-30T11:07:22.996Z,6.10
2017-08-30T11:09:50.678Z,6.50
2017-08-30T11:12:18.374Z,9.23
2017-08-30T11:14:46.028Z,7.63
2017-08-30T11:17:28.139Z,6.80
2017-08-30T11:19:56.481Z,7.13
2017-08-30T11:22:24.561Z,7.33
2017-08-30T11:24:54.104Z,5.87
2017-08-30T11:27:24.555Z,5.90
2017-08-30T11:29:56.160Z,6.70
2017-08-30T11:32:27.881Z,6.20
2017-08-30T11:34:55.526Z,5.67
2017-08-30T11:37:23.166Z,5.77
2017-08-30T11:39:51.006Z,5.97
2017-08-30T11:42:18.682Z,5.67
2017-08-30T11:44:46.327Z,6.40
2017-08-30T11:47:14.018Z,6.23
2017-08-30T11:52:38.214Z,6.33
2017-08-30T11:55:05.850Z,5.83
2017-08-30T11:57:33.539Z,6.10
2017-08-30T12:00:01.405Z,6.00
2017-08-30T12:02:29.036Z,5.50
2017-08-30T12:04:56.695Z,6.60
2017-08-30T12:07:24.591Z,6.20
2017-08-30T12:09:52.223Z,5.40
2017-08-30T12:12:19.897Z,6.40
2017-08-30T12:14:47.786Z,5.17
2017-08-30T12:17:15.435Z,6.57
2017-08-30T12:19:43.076Z,6.10
2017-08-30T12:22:10.788Z,6.27
2017-08-30T12:24:38.439Z,5.77
2017-08-30T12:27:06.103Z,5.67
2017-08-30T12:29:34.142Z,6.30
2017-08-30T12:32:01.791Z,6.10
2017-08-30T12:34:29.452Z,5.70
2017-08-30T12:37:02.919Z,5.10
2017-08-30T12:39:36.166Z,5.87
2017-08-30T12:42:03.830Z,5.90
2017-08-30T12:44:31.603Z,5.47
2017-08-30T12:46:59.258Z,6.80
2017-08-30T12:49:26.981Z,6.00
2017-08-30T12:51:54.637Z,4.97
2017-08-30T12:54:22.298Z,6.70
2017-08-30T12:56:49.986Z,10.87
2017-08-30T12:59:17.647Z,6.00
2017-08-30T13:01:45.482Z,6.57
2017-08-30T13:04:13.162Z,6.13
2017-08-30T13:06:40.805Z,6.00
2017-08-30T13:09:08.506Z,5.27
2017-08-30T13:11:36.158Z,6.20
2017-08-30T13:14:03.823Z,5.90
2017-08-30T13:16:31.554Z,5.90
2017-08-30T13:18:59.227Z,6.00
2017-08-30T13:21:26.880Z,6.13
2017-08-30T13:23:54.577Z,5.57
2017-08-30T13:26:22.235Z,5.83
2017-08-30T13:28:49.874Z,5.57
2017-08-30T13:31:17.788Z,6.33
2017-08-30T13:33:45.451Z,5.93
2017-08-30T13:36:13.110Z,5.70
2017-08-30T13:38:40.823Z,6.47
2017-08-30T13:41:08.462Z,6.80
2017-08-30T13:43:36.128Z,6.13
2017-08-30T13:46:03.937Z,5.57
2017-08-30T13:48:31.936Z,6.10
2017-08-30T13:50:59.579Z,6.60
2017-08-30T13:53:27.268Z,6.83
2017-08-30T13:55:54.919Z,5.27
2017-08-30T13:58:22.587Z,6.60
2017-08-30T14:00:50.425Z,6.50
2017-08-30T14:03:18.117Z,7.03
2017-08-30T14:05:45.824Z,6.60
2017-08-30T14:08:13.827Z,6.47
2017-08-30T14:10:41.496Z,7.77
2017-08-30T14:13:09.140Z,8.03
2017-08-30T14:15:36.835Z,6.80
2017-08-30T14:18:04.481Z,6.40
2017-08-30T14:20:32.131Z,8.30
2017-08-30T14:23:00.050Z,8.30
2017-08-30T14:25:27.691Z,7.90
2017-08-30T14:27:55.345Z,7.60
2017-08-30T14:30:23.164Z,6.80
2017-08-30T14:32:50.811Z,6.90
2017-08-30T14:35:18.455Z,14.50
2017-08-30T14:37:46.484Z,8.20
2017-08-30T14:40:14.146Z,9.67
2017-08-30T14:42:41.824Z,9.90
2017-08-30T14:45:09.695Z,8.07
2017-08-30T14:47:37.744Z,8.03
2017-08-30T14:50:05.837Z,8.53
2017-08-30T14:52:34.438Z,8.30
2017-08-30T14:55:02.499Z,7.27
2017-08-30T14:57:30.202Z,8.20
2017-08-30T14:59:57.880Z,6.83
2017-08-30T15:02:25.560Z,6.93
2017-08-30T15:04:53.224Z,8.50
2017-08-30T15:07:20.936Z,6.73
2017-08-30T15:09:48.579Z,7.30
2017-08-30T15:12:16.226Z,7.47
2017-08-30T15:14:43.938Z,7.83
2017-08-30T15:17:11.617Z,7.70
2017-08-30T15:19:39.265Z,8.50
2017-08-30T15:22:06.944Z,7.50
2017-08-30T15:24:34.599Z,9.63
2017-08-30T15:27:02.288Z,7.07
2017-08-30T15:29:30.347Z,7.20
2017-08-30T15:31:58.015Z,8.83
2017-08-30T15:34:26.013Z,9.03
2017-08-30T15:36:54.529Z,8.03
2017-08-30T15:39:22.175Z,8.40
2017-08-30T15:41:50.342Z,7.57
2017-08-30T15:44:18.064Z,7.93
2017-08-30T15:46:45.731Z,7.90
2017-08-30T15:49:13.392Z,8.17
2017-08-30T15:51:41.198Z,8.80
2017-08-30T15:54:08.880Z,7.13
2017-08-30T15:56:36.541Z,8.43
2017-08-30T15:59:08.996Z,9.00
2017-08-30T16:01:36.650Z,8.07
2017-08-30T16:04:04.424Z,8.90
2017-08-30T16:06:32.216Z,8.63
2017-08-30T16:09:01.220Z,9.17
2017-08-30T16:11:29.052Z,11.40
2017-08-30T16:13:56.966Z,9.83
2017-08-30T16:16:24.644Z,10.60
2017-08-30T16:18:52.304Z,8.17
2017-08-30T16:21:20.772Z,8.67
2017-08-30T16:23:48.575Z,8.83
2017-08-30T16:26:16.225Z,14.13
2017-08-30T16:28:43.900Z,16.00
2017-08-30T16:31:12.049Z,8.80
2017-08-30T16:33:39.696Z,10.77
2017-08-30T16:36:07.422Z,12.50
2017-08-30T16:38:35.359Z,10.13
2017-08-30T16:41:03.510Z,9.73
2017-08-30T16:43:31.245Z,9.13
2017-08-30T16:45:58.892Z,11.00
2017-08-30T16:48:26.537Z,9.90
2017-08-30T16:50:54.221Z,10.13
2017-08-30T16:53:21.946Z,12.07
2017-08-30T16:55:49.613Z,14.90
2017-08-30T16:58:17.424Z,16.60
2017-08-30T17:00:45.573Z,12.33
2017-08-30T17:03:14.000Z,9.47
2017-08-30T17:05:41.771Z,12.10
2017-08-30T17:08:09.716Z,14.97
2017-08-30T17:10:38.131Z,10.27
2017-08-30T17:13:05.881Z,10.93
2017-08-30T17:15:34.058Z,11.30
2017-08-30T17:18:01.792Z,10.57
2017-08-30T17:20:29.624Z,13.47
2017-08-30T17:22:57.371Z,23.73
2017-08-30T17:25:25.051Z,11.90
2017-08-30T17:27:53.035Z,11.30
2017-08-30T17:30:20.696Z,12.03
2017-08-30T17:32:48.623Z,12.27
2017-08-30T17:35:16.298Z,11.90
2017-08-30T17:37:43.955Z,14.07
2017-08-30T17:40:11.604Z,12.10
2017-08-30T17:42:41.137Z,13.47
2017-08-30T17:45:08.790Z,11.40
2017-08-30T17:47:36.438Z,12.97
2017-08-30T17:50:04.415Z,10.57
2017-08-30T17:52:36.386Z,12.30
2017-08-30T17:55:04.121Z,11.93
2017-08-30T17:57:32.455Z,12.10
2017-08-30T18:00:00.222Z,12.00
2017-08-30T18:02:27.922Z,11.17
2017-08-30T18:04:55.646Z,12.63
2017-08-30T18:07:23.325Z,13.40
2017-08-30T18:09:51.318Z,33.20
2017-08-30T18:12:19.139Z,11.37
2017-08-30T18:14:46.821Z,15.00
2017-08-30T18:17:14.880Z,14.00
2017-08-30T18:19:42.624Z,11.80
2017-08-30T18:22:10.293Z,11.13
2017-08-30T18:24:38.022Z,10.10
2017-08-30T18:27:05.723Z,14.33
2017-08-30T18:29:33.880Z,12.17
2017-08-30T18:32:01.526Z,12.90
2017-08-30T18:34:29.680Z,16.30
2017-08-30T18:36:57.420Z,13.40
2017-08-30T18:39:25.078Z,21.40
2017-08-30T18:41:53.034Z,27.93
2017-08-30T18:44:20.910Z,14.23
2017-08-30T18:46:48.892Z,11.30
2017-08-30T18:49:16.978Z,15.07
2017-08-30T18:51:44.727Z,18.33
2017-08-30T18:54:12.382Z,17.10
2017-08-30T18:56:40.079Z,43.73
2017-08-30T18:59:07.740Z,52.40
2017-08-30T19:01:35.429Z,31.43
2017-08-30T19:04:03.135Z,22.80
2017-08-30T19:06:30.836Z,16.87
2017-08-30T19:08:59.116Z,16.03
2017-08-30T19:11:27.187Z,14.73
2017-08-30T19:13:55.001Z,28.30
2017-08-30T19:16:22.739Z,21.17
2017-08-30T19:18:50.442Z,19.73
2017-08-30T19:21:18.654Z,24.13
2017-08-30T19:23:46.702Z,17.93
2017-08-30T19:26:14.683Z,16.87
2017-08-30T19:28:42.346Z,18.03
2017-08-30T19:31:10.001Z,15.90
2017-08-30T19:33:37.696Z,18.73
2017-08-30T19:36:05.407Z,16.50
2017-08-30T19:38:33.061Z,17.37
2017-08-30T19:41:00.753Z,14.50
2017-08-30T19:43:28.486Z,13.73
2017-08-30T19:45:56.141Z,14.23
2017-08-30T19:48:24.175Z,16.13
2017-08-30T19:50:51.851Z,15.60
2017-08-30T19:53:19.530Z,16.20
2017-08-30T19:55:47.290Z,18.97
2017-08-30T19:58:15.145Z,16.50
2017-08-30T20:00:42.802Z,16.67
2017-08-30T20:03:10.501Z,17.77
2017-08-30T20:05:38.162Z,16.90
2017-08-30T20:08:05.819Z,17.00
2017-08-30T20:10:34.678Z,14.60
2017-08-30T20:13:02.370Z,14.63
2017-08-30T20:15:30.035Z,14.20
2017-08-30T20:17:58.242Z,15.43
2017-08-30T20:20:26.104Z,15.50
2017-08-30T20:22:53.780Z,14.40
2017-08-30T20:25:21.554Z,17.63
2017-08-30T20:27:49.215Z,20.47
2017-08-30T20:30:16.948Z,18.10
2017-08-30T20:32:44.811Z,19.70
2017-08-30T20:35:12.979Z,51.03
2017-08-30T20:37:40.752Z,42.83
2017-08-30T20:40:08.818Z,64.13
2017-08-30T20:42:36.511Z,84.17
2017-08-30T20:45:04.590Z,40.17
2017-08-30T20:47:32.282Z,79.87
2017-08-30T20:49:59.941Z,190.53
2017-08-30T20:52:27.619Z,94.90
2017-08-30T20:54:55.293Z,45.07
2017-08-30T20:57:22.951Z,49.97
2017-08-30T20:59:50.611Z,90.10
2017-08-30T21:02:20.058Z,32.17
2017-08-30T21:04:47.738Z,40.53
2017-08-30T21:07:15.654Z,46.13
2017-08-30T21:09:43.380Z,27.63
2017-08-30T21:12:11.168Z,23.07
2017-08-30T21:14:38.828Z,23.43
2017-08-30T21:17:06.568Z,42.60
2017-08-30T21:19:34.417Z,51.40
2017-08-30T21:22:02.080Z,29.27
2017-08-30T21:24:29.758Z,33.80
2017-08-30T21:26:57.793Z,23.20
2017-08-30T21:29:26.054Z,20.37
2017-08-30T21:31:53.791Z,28.57
2017-08-30T21:34:21.698Z,19.80
2017-08-30T21:36:49.363Z,20.63
2017-08-30T21:39:17.023Z,22.40
2017-08-30T21:41:45.614Z,20.13
2017-08-30T21:44:13.292Z,18.10
2017-08-30T21:46:40.943Z,18.20
2017-08-30T21:49:08.901Z,20.20
2017-08-30T21:51:36.559Z,17.40
2017-08-30T21:54:04.218Z,18.93
2017-08-30T21:56:32.196Z,24.00
2017-08-30T21:58:59.850Z,22.13
2017-08-30T22:01:27.543Z,31.07
2017-08-30T22:03:55.485Z,31.90
2017-08-30T22:06:23.147Z,25.60
2017-08-30T22:08:50.814Z,25.30
2017-08-30T22:11:21.443Z,44.73
2017-08-30T22:14:06.829Z,19.83
2017-08-30T22:16:35.630Z,31.10
2017-08-30T22:19:03.290Z,31.73
2017-08-30T22:21:30.970Z,21.30
2017-08-30T22:23:58.760Z,26.20
2017-08-30T22:26:26.419Z,22.97
2017-08-30T22:28:54.069Z,20.93
2017-08-30T22:31:22.085Z,24.00
2017-08-30T22:33:49.747Z,27.40
2017-08-30T22:36:17.397Z,23.17
2017-08-30T22:38:45.276Z,21.83
2017-08-30T22:41:13.695Z,21.27
2017-08-30T22:43:41.358Z,22.50
2017-08-30T22:46:09.087Z,22.00
2017-08-30T22:48:36.755Z,24.83
2017-08-30T22:51:04.410Z,25.20
2017-08-30T22:53:33.458Z,25.20
2017-08-30T22:56:01.471Z,24.90
2017-08-30T22:58:30.317Z,28.20
2017-08-30T23:00:58.592Z,24.70
2017-08-30T23:03:26.459Z,26.52
2017-08-30T23:05:54.599Z,24.97
2017-08-30T23:08:22.879Z,27.67
2017-08-30T23:10:50.902Z,28.40
2017-08-30T23:13:18.550Z,26.07
2017-08-30T23:15:46.593Z,26.00
2017-08-30T23:18:14.299Z,26.33
2017-08-30T23:20:42.198Z,25.03
2017-08-30T23:23:10.823Z,24.70
2017-08-30T23:25:39.308Z,21.93
2017-08-30T23:28:08.245Z,19.77
2017-08-30T23:30:36.369Z,20.63
2017-08-30T23:33:04.831Z,20.47
2017-08-30T23:35:32.638Z,19.30
2017-08-30T23:38:00.312Z,21.80
2017-08-30T23:40:28.467Z,17.03
2017-08-30T23:42:57.773Z,16.13
2017-08-30T23:45:25.670Z,15.83
2017-08-30T23:47:54.296Z,16.13
2017-08-30T23:50:23.126Z,15.20
2017-08-30T23:52:51.162Z,15.03
2017-08-30T23:55:19.154Z,13.93
2017-08-30T23:57:47.110Z,17.00
